sensor_id;sensor_type;location;lat;lon;timestamp;P1;durP1;ratioP1;P2;durP2;ratioP2
41627;SDS011;27321;50.816;6.054;2023-08-12T00:02:30;5.82;;;5.32;;
41627;SDS011;27321;50.816;6.054;2023-08-12T00:05:31;4.95;;;4.55;;
41627;SDS011;27321;50.816;6.054;2023-08-12T00:08:33;5.47;;;4.97;;
41627;SDS011;27321;50.816;6.054;2023-08-12T00:11:37;6.55;;;5.18;;
41627;SDS011;27321;50.816;6.054;2023-08-12T00:14:38;8.00;;;5.28;;
41627;SDS011;27321;50.816;6.054;2023-08-12T00:17:39;5.05;;;4.63;;
41627;SDS011;27321;50.816;6.054;2023-08-12T00:20:41;5.13;;;4.63;;
41627;SDS011;27321;50.816;6.054;2023-08-12T00:23:42;4.93;;;4.43;;
41627;SDS011;27321;50.816;6.054;2023-08-12T00:26:44;5.28;;;4.78;;
41627;SDS011;27321;50.816;6.054;2023-08-12T00:29:45;5.20;;;4.55;;
41627;SDS011;27321;50.816;6.054;2023-08-12T00:32:46;4.90;;;4.47;;
41627;SDS011;27321;50.816;6.054;2023-08-12T00:35:47;6.03;;;5.53;;
41627;SDS011;27321;50.816;6.054;2023-08-12T00:38:48;6.50;;;4.75;;
41627;SDS011;27321;50.816;6.054;2023-08-12T00:41:49;4.70;;;4.30;;
41627;SDS011;27321;50.816;6.054;2023-08-12T00:44:50;4.72;;;4.32;;
41627;SDS011;27321;50.816;6.054;2023-08-12T00:47:51;5.50;;;4.97;;
41627;SDS011;27321;50.816;6.054;2023-08-12T00:53:54;4.65;;;4.15;;
41627;SDS011;27321;50.816;6.054;2023-08-12T00:56:57;5.30;;;4.80;;
41627;SDS011;27321;50.816;6.054;2023-08-12T01:03:00;5.28;;;4.35;;
41627;SDS011;27321;50.816;6.054;2023-08-12T01:15:29;6.20;;;4.13;;
41627;SDS011;27321;50.816;6.054;2023-08-12T01:21:32;4.68;;;4.15;;
41627;SDS011;27321;50.816;6.054;2023-08-12T01:24:38;4.57;;;4.18;;
41627;SDS011;27321;50.816;6.054;2023-08-12T01:27:41;4.60;;;4.07;;
41627;SDS011;27321;50.816;6.054;2023-08-12T01:31:06;4.28;;;3.85;;
41627;SDS011;27321;50.816;6.054;2023-08-12T01:34:20;4.50;;;4.13;;
41627;SDS011;27321;50.816;6.054;2023-08-12T01:37:33;4.15;;;3.80;;
41627;SDS011;27321;50.816;6.054;2023-08-12T01:40:38;4.18;;;3.78;;
41627;SDS011;27321;50.816;6.054;2023-08-12T01:43:41;3.92;;;3.50;;
41627;SDS011;27321;50.816;6.054;2023-08-12T01:46:43;3.97;;;3.63;;
41627;SDS011;27321;50.816;6.054;2023-08-12T01:49:44;4.57;;;4.15;;
41627;SDS011;27321;50.816;6.054;2023-08-12T01:52:45;5.10;;;4.22;;
41627;SDS011;27321;50.816;6.054;2023-08-12T01:55:47;3.90;;;3.45;;
41627;SDS011;27321;50.816;6.054;2023-08-12T01:58:49;4.32;;;3.92;;
41627;SDS011;27321;50.816;6.054;2023-08-12T02:01:50;4.55;;;3.63;;
41627;SDS011;27321;50.816;6.054;2023-08-12T02:04:51;4.15;;;3.65;;
41627;SDS011;27321;50.816;6.054;2023-08-12T02:07:52;4.40;;;3.60;;
41627;SDS011;27321;50.816;6.054;2023-08-12T02:10:53;3.92;;;3.53;;
41627;SDS011;27321;50.816;6.054;2023-08-12T02:13:54;3.65;;;3.35;;
41627;SDS011;27321;50.816;6.054;2023-08-12T02:16:55;4.25;;;3.30;;
41627;SDS011;27321;50.816;6.054;2023-08-12T02:19:56;4.03;;;3.72;;
41627;SDS011;27321;50.816;6.054;2023-08-12T02:22:57;4.85;;;3.85;;
41627;SDS011;27321;50.816;6.054;2023-08-12T02:25:58;4.15;;;3.47;;
41627;SDS011;27321;50.816;6.054;2023-08-12T02:29:01;5.20;;;3.85;;
41627;SDS011;27321;50.816;6.054;2023-08-12T02:32:02;4.30;;;3.90;;
41627;SDS011;27321;50.816;6.054;2023-08-12T02:35:03;4.03;;;3.70;;
41627;SDS011;27321;50.816;6.054;2023-08-12T02:41:05;4.22;;;3.83;;
41627;SDS011;27321;50.816;6.054;2023-08-12T02:44:06;4.70;;;4.18;;
41627;SDS011;27321;50.816;6.054;2023-08-12T02:47:07;4.30;;;3.90;;
41627;SDS011;27321;50.816;6.054;2023-08-12T02:50:08;4.15;;;3.45;;
41627;SDS011;27321;50.816;6.054;2023-08-12T02:53:09;5.93;;;4.20;;
41627;SDS011;27321;50.816;6.054;2023-08-12T02:56:10;5.18;;;3.85;;
41627;SDS011;27321;50.816;6.054;2023-08-12T02:59:11;3.63;;;3.33;;
41627;SDS011;27321;50.816;6.054;2023-08-12T03:02:12;4.43;;;3.72;;
41627;SDS011;27321;50.816;6.054;2023-08-12T03:05:13;4.53;;;3.85;;
41627;SDS011;27321;50.816;6.054;2023-08-12T03:08:14;4.43;;;4.10;;
41627;SDS011;27321;50.816;6.054;2023-08-12T03:11:16;4.07;;;3.67;;
41627;SDS011;27321;50.816;6.054;2023-08-12T03:14:18;4.32;;;3.92;;
41627;SDS011;27321;50.816;6.054;2023-08-12T03:17:19;3.88;;;3.53;;
41627;SDS011;27321;50.816;6.054;2023-08-12T03:20:21;4.15;;;3.58;;
41627;SDS011;27321;50.816;6.054;2023-08-12T03:23:23;4.38;;;3.95;;
41627;SDS011;27321;50.816;6.054;2023-08-12T03:26:24;4.22;;;3.83;;
41627;SDS011;27321;50.816;6.054;2023-08-12T03:29:28;4.00;;;3.40;;
41627;SDS011;27321;50.816;6.054;2023-08-12T03:32:29;4.28;;;3.30;;
41627;SDS011;27321;50.816;6.054;2023-08-12T03:35:30;3.97;;;3.58;;
41627;SDS011;27321;50.816;6.054;2023-08-12T03:41:32;3.70;;;3.40;;
41627;SDS011;27321;50.816;6.054;2023-08-12T03:44:37;3.90;;;3.50;;
41627;SDS011;27321;50.816;6.054;2023-08-12T03:47:38;4.15;;;3.60;;
41627;SDS011;27321;50.816;6.054;2023-08-12T03:50:40;4.78;;;3.55;;
41627;SDS011;27321;50.816;6.054;2023-08-12T03:53:42;3.30;;;3.10;;
41627;SDS011;27321;50.816;6.054;2023-08-12T03:56:43;3.85;;;3.55;;
41627;SDS011;27321;50.816;6.054;2023-08-12T03:59:45;4.38;;;3.20;;
41627;SDS011;27321;50.816;6.054;2023-08-12T04:02:46;3.05;;;2.85;;
41627;SDS011;27321;50.816;6.054;2023-08-12T04:05:48;3.58;;;3.10;;
41627;SDS011;27321;50.816;6.054;2023-08-12T04:08:52;3.08;;;2.78;;
41627;SDS011;27321;50.816;6.054;2023-08-12T04:11:53;2.90;;;2.58;;
41627;SDS011;27321;50.816;6.054;2023-08-12T04:14:54;3.35;;;2.83;;
41627;SDS011;27321;50.816;6.054;2023-08-12T04:17:55;4.20;;;2.42;;
41627;SDS011;27321;50.816;6.054;2023-08-12T04:20:56;2.60;;;2.42;;
41627;SDS011;27321;50.816;6.054;2023-08-12T04:23:57;2.92;;;2.45;;
41627;SDS011;27321;50.816;6.054;2023-08-12T04:26:58;2.75;;;2.55;;
41627;SDS011;27321;50.816;6.054;2023-08-12T04:30:00;2.75;;;2.55;;
41627;SDS011;27321;50.816;6.054;2023-08-12T04:33:03;2.63;;;2.25;;
41627;SDS011;27321;50.816;6.054;2023-08-12T04:36:05;2.58;;;2.38;;
41627;SDS011;27321;50.816;6.054;2023-08-12T04:39:06;2.13;;;1.95;;
41627;SDS011;27321;50.816;6.054;2023-08-12T04:42:07;2.85;;;2.60;;
41627;SDS011;27321;50.816;6.054;2023-08-12T04:45:09;2.40;;;2.20;;
41627;SDS011;27321;50.816;6.054;2023-08-12T04:51:11;2.22;;;2.03;;
41627;SDS011;27321;50.816;6.054;2023-08-12T04:54:12;2.30;;;2.13;;
41627;SDS011;27321;50.816;6.054;2023-08-12T04:57:14;2.72;;;2.10;;
41627;SDS011;27321;50.816;6.054;2023-08-12T05:00:14;2.03;;;1.90;;
41627;SDS011;27321;50.816;6.054;2023-08-12T05:03:17;2.17;;;1.95;;
41627;SDS011;27321;50.816;6.054;2023-08-12T05:06:18;2.67;;;2.22;;
41627;SDS011;27321;50.816;6.054;2023-08-12T05:12:21;1.50;;;1.40;;
41627;SDS011;27321;50.816;6.054;2023-08-12T05:15:22;2.20;;;2.00;;
41627;SDS011;27321;50.816;6.054;2023-08-12T05:18:23;2.22;;;2.03;;
41627;SDS011;27321;50.816;6.054;2023-08-12T05:24:25;2.53;;;1.73;;
41627;SDS011;27321;50.816;6.054;2023-08-12T05:27:26;2.97;;;1.77;;
41627;SDS011;27321;50.816;6.054;2023-08-12T05:30:27;1.80;;;1.70;;
41627;SDS011;27321;50.816;6.054;2023-08-12T05:33:28;2.38;;;1.92;;
41627;SDS011;27321;50.816;6.054;2023-08-12T05:36:29;2.28;;;1.80;;
41627;SDS011;27321;50.816;6.054;2023-08-12T05:39:30;2.33;;;1.77;;
41627;SDS011;27321;50.816;6.054;2023-08-12T05:42:31;1.70;;;1.60;;
41627;SDS011;27321;50.816;6.054;2023-08-12T05:45:32;2.55;;;1.98;;
41627;SDS011;27321;50.816;6.054;2023-08-12T05:48:33;7.30;;;2.10;;
41627;SDS011;27321;50.816;6.054;2023-08-12T05:51:34;2.83;;;1.95;;
41627;SDS011;27321;50.816;6.054;2023-08-12T05:54:35;2.20;;;2.00;;
41627;SDS011;27321;50.816;6.054;2023-08-12T05:57:36;1.83;;;1.60;;
41627;SDS011;27321;50.816;6.054;2023-08-12T06:00:37;1.73;;;1.63;;
41627;SDS011;27321;50.816;6.054;2023-08-12T06:03:38;2.03;;;1.85;;
41627;SDS011;27321;50.816;6.054;2023-08-12T06:06:39;2.63;;;1.88;;
41627;SDS011;27321;50.816;6.054;2023-08-12T06:09:40;1.65;;;1.55;;
41627;SDS011;27321;50.816;6.054;2023-08-12T06:12:41;1.70;;;1.60;;
41627;SDS011;27321;50.816;6.054;2023-08-12T06:15:42;2.38;;;1.60;;
41627;SDS011;27321;50.816;6.054;2023-08-12T06:18:43;3.00;;;1.73;;
41627;SDS011;27321;50.816;6.054;2023-08-12T06:21:43;3.03;;;1.35;;
41627;SDS011;27321;50.816;6.054;2023-08-12T06:24:44;3.30;;;1.50;;
41627;SDS011;27321;50.816;6.054;2023-08-12T06:27:45;1.35;;;1.25;;
41627;SDS011;27321;50.816;6.054;2023-08-12T06:30:47;1.10;;;1.10;;
41627;SDS011;27321;50.816;6.054;2023-08-12T06:33:48;2.88;;;1.23;;
41627;SDS011;27321;50.816;6.054;2023-08-12T06:36:49;1.45;;;1.33;;
41627;SDS011;27321;50.816;6.054;2023-08-12T06:39:50;1.25;;;1.15;;
41627;SDS011;27321;50.816;6.054;2023-08-12T06:42:51;1.48;;;1.30;;
41627;SDS011;27321;50.816;6.054;2023-08-12T06:45:52;1.77;;;1.33;;
41627;SDS011;27321;50.816;6.054;2023-08-12T06:48:53;1.38;;;1.00;;
41627;SDS011;27321;50.816;6.054;2023-08-12T06:51:54;1.40;;;0.98;;
41627;SDS011;27321;50.816;6.054;2023-08-12T06:54:55;1.30;;;1.17;;
41627;SDS011;27321;50.816;6.054;2023-08-12T06:57:56;1.30;;;1.17;;
41627;SDS011;27321;50.816;6.054;2023-08-12T07:00:57;1.25;;;1.17;;
41627;SDS011;27321;50.816;6.054;2023-08-12T07:03:59;1.02;;;1.02;;
41627;SDS011;27321;50.816;6.054;2023-08-12T07:07:00;1.17;;;1.17;;
41627;SDS011;27321;50.816;6.054;2023-08-12T07:10:01;1.20;;;1.10;;
41627;SDS011;27321;50.816;6.054;2023-08-12T07:13:02;1.23;;;1.08;;
41627;SDS011;27321;50.816;6.054;2023-08-12T07:16:03;1.63;;;1.38;;
41627;SDS011;27321;50.816;6.054;2023-08-12T07:19:04;1.80;;;1.35;;
41627;SDS011;27321;50.816;6.054;2023-08-12T07:22:05;2.25;;;1.15;;
41627;SDS011;27321;50.816;6.054;2023-08-12T07:25:06;1.40;;;1.30;;
41627;SDS011;27321;50.816;6.054;2023-08-12T07:28:07;1.65;;;1.30;;
41627;SDS011;27321;50.816;6.054;2023-08-12T07:31:08;1.42;;;1.27;;
41627;SDS011;27321;50.816;6.054;2023-08-12T07:34:09;1.25;;;1.15;;
41627;SDS011;27321;50.816;6.054;2023-08-12T07:37:13;5.13;;;1.52;;
41627;SDS011;27321;50.816;6.054;2023-08-12T07:40:14;2.38;;;1.15;;
41627;SDS011;27321;50.816;6.054;2023-08-12T07:43:15;1.40;;;1.30;;
41627;SDS011;27321;50.816;6.054;2023-08-12T07:46:16;1.38;;;0.90;;
41627;SDS011;27321;50.816;6.054;2023-08-12T07:49:17;1.30;;;1.20;;
41627;SDS011;27321;50.816;6.054;2023-08-12T07:52:18;1.20;;;1.10;;
41627;SDS011;27321;50.816;6.054;2023-08-12T07:58:20;1.27;;;1.17;;
41627;SDS011;27321;50.816;6.054;2023-08-12T08:01:21;0.90;;;0.80;;
41627;SDS011;27321;50.816;6.054;2023-08-12T08:04:21;0.80;;;0.80;;
41627;SDS011;27321;50.816;6.054;2023-08-12T08:07:22;1.13;;;1.00;;
41627;SDS011;27321;50.816;6.054;2023-08-12T08:10:23;0.98;;;0.90;;
41627;SDS011;27321;50.816;6.054;2023-08-12T08:13:25;1.48;;;1.05;;
41627;SDS011;27321;50.816;6.054;2023-08-12T08:16:26;0.80;;;0.80;;
41627;SDS011;27321;50.816;6.054;2023-08-12T08:19:27;1.13;;;0.70;;
41627;SDS011;27321;50.816;6.054;2023-08-12T08:22:28;1.15;;;0.80;;
41627;SDS011;27321;50.816;6.054;2023-08-12T08:25:29;0.70;;;0.70;;
41627;SDS011;27321;50.816;6.054;2023-08-12T08:28:30;2.15;;;1.05;;
41627;SDS011;27321;50.816;6.054;2023-08-12T08:31:31;0.77;;;0.77;;
41627;SDS011;27321;50.816;6.054;2023-08-12T08:37:33;0.80;;;0.80;;
41627;SDS011;27321;50.816;6.054;2023-08-12T08:40:34;0.65;;;0.65;;
41627;SDS011;27321;50.816;6.054;2023-08-12T08:43:36;1.45;;;1.00;;
41627;SDS011;27321;50.816;6.054;2023-08-12T08:49:38;0.60;;;0.60;;
41627;SDS011;27321;50.816;6.054;2023-08-12T08:52:40;2.83;;;0.90;;
41627;SDS011;27321;50.816;6.054;2023-08-12T08:55:43;0.80;;;0.80;;
41627;SDS011;27321;50.816;6.054;2023-08-12T08:58:46;0.70;;;0.70;;
41627;SDS011;27321;50.816;6.054;2023-08-12T09:01:47;1.63;;;0.70;;
41627;SDS011;27321;50.816;6.054;2023-08-12T09:04:51;0.60;;;0.60;;
41627;SDS011;27321;50.816;6.054;2023-08-12T09:07:53;1.20;;;0.77;;
41627;SDS011;27321;50.816;6.054;2023-08-12T09:10:56;0.73;;;0.60;;
41627;SDS011;27321;50.816;6.054;2023-08-12T09:14:00;0.75;;;0.70;;
41627;SDS011;27321;50.816;6.054;2023-08-12T09:17:01;0.60;;;0.60;;
41627;SDS011;27321;50.816;6.054;2023-08-12T09:23:08;1.42;;;0.60;;
41627;SDS011;27321;50.816;6.054;2023-08-12T09:26:12;0.57;;;0.57;;
41627;SDS011;27321;50.816;6.054;2023-08-12T09:29:15;1.50;;;0.70;;
41627;SDS011;27321;50.816;6.054;2023-08-12T09:32:19;0.98;;;0.50;;
41627;SDS011;27321;50.816;6.054;2023-08-12T09:35:20;0.75;;;0.57;;
41627;SDS011;27321;50.816;6.054;2023-08-12T09:41:23;0.80;;;0.70;;
41627;SDS011;27321;50.816;6.054;2023-08-12T09:44:26;0.73;;;0.47;;
41627;SDS011;27321;50.816;6.054;2023-08-12T09:47:27;1.13;;;0.68;;
41627;SDS011;27321;50.816;6.054;2023-08-12T09:50:28;0.85;;;0.68;;
41627;SDS011;27321;50.816;6.054;2023-08-12T09:53:29;1.05;;;0.70;;
41627;SDS011;27321;50.816;6.054;2023-08-12T09:59:35;0.60;;;0.60;;
41627;SDS011;27321;50.816;6.054;2023-08-12T10:02:36;0.80;;;0.80;;
41627;SDS011;27321;50.816;6.054;2023-08-12T10:05:40;0.93;;;0.80;;
41627;SDS011;27321;50.816;6.054;2023-08-12T10:08:42;0.65;;;0.65;;
41627;SDS011;27321;50.816;6.054;2023-08-12T10:11:46;1.40;;;0.90;;
41627;SDS011;27321;50.816;6.054;2023-08-12T10:14:48;0.80;;;0.80;;
41627;SDS011;27321;50.816;6.054;2023-08-12T10:20:52;0.68;;;0.68;;
